createdAt,value
2023-04-15T00:03:42.166Z,13.63
2023-04-15T00:08:46.568Z,10.35
2023-04-15T00:13:49.416Z,8.70
2023-04-15T00:18:52.456Z,10.57
2023-04-15T00:23:56.936Z,13.32
2023-04-15T00:28:59.896Z,8.23
2023-04-15T00:34:03.670Z,9.93
2023-04-15T00:39:08.197Z,10.38
2023-04-15T00:44:11.499Z,11.43
2023-04-15T00:49:14.675Z,12.40
2023-04-15T00:54:18.925Z,11.82
2023-04-15T00:59:22.629Z,14.50
2023-04-15T01:04:26.679Z,11.20
2023-04-15T01:09:30.999Z,12.15
2023-04-15T01:14:35.250Z,13.30
2023-04-15T01:19:38.208Z,12.65
2023-04-15T01:24:44.089Z,14.88
2023-04-15T01:29:48.579Z,12.45
2023-04-15T01:34:51.458Z,11.70
2023-04-15T01:39:54.339Z,14.63
2023-04-15T01:45:00.199Z,14.88
2023-04-15T01:50:02.994Z,12.13
2023-04-15T01:55:08.037Z,14.05
2023-04-15T02:00:13.168Z,12.90
2023-04-15T02:05:18.720Z,15.02
2023-04-15T02:10:23.563Z,15.40
2023-04-15T02:15:27.825Z,13.48
2023-04-15T02:20:32.178Z,13.40
2023-04-15T02:25:35.046Z,15.75
2023-04-15T02:30:42.210Z,13.27
2023-04-15T02:35:45.520Z,13.98
2023-04-15T02:40:49.764Z,15.35
2023-04-15T02:45:54.329Z,14.00
2023-04-15T02:51:12.480Z,12.07
2023-04-15T02:56:17.126Z,13.93
2023-04-15T03:01:21.535Z,14.50
2023-04-15T03:06:24.763Z,14.05
2023-04-15T03:11:28.202Z,15.52
2023-04-15T03:16:32.448Z,11.48
2023-04-15T03:21:35.459Z,11.77
2023-04-15T03:26:38.933Z,13.13
2023-04-15T03:31:49.304Z,12.90
2023-04-15T03:36:52.920Z,16.90
2023-04-15T03:41:56.453Z,15.98
2023-04-15T03:47:00.726Z,14.73
2023-04-15T03:52:03.686Z,18.08
2023-04-15T03:57:06.584Z,15.25
2023-04-15T04:02:10.843Z,15.95
2023-04-15T04:07:16.960Z,16.08
2023-04-15T04:12:19.814Z,16.45
2023-04-15T04:17:24.043Z,17.30
2023-04-15T04:22:26.869Z,18.52
2023-04-15T04:27:29.740Z,18.92
2023-04-15T04:32:34.071Z,18.25
2023-04-15T04:37:36.969Z,16.77
2023-04-15T04:42:40.258Z,19.98
2023-04-15T04:47:44.581Z,19.33
2023-04-15T04:52:47.648Z,18.67
2023-04-15T04:57:50.647Z,20.23
2023-04-15T05:02:54.931Z,20.98
2023-04-15T05:07:58.977Z,19.90
2023-04-15T05:13:02.499Z,21.60
2023-04-15T05:18:06.723Z,22.58
2023-04-15T05:23:09.665Z,22.13
2023-04-15T05:28:12.614Z,22.20
2023-04-15T05:33:17.635Z,23.77
2023-04-15T05:38:20.522Z,10.60
2023-04-15T05:43:23.380Z,24.88
2023-04-15T05:48:27.587Z,25.13
2023-04-15T05:53:30.421Z,16.10
2023-04-15T05:58:33.325Z,21.42
2023-04-15T06:03:37.958Z,23.83
2023-04-15T06:08:40.914Z,23.83
2023-04-15T06:13:43.866Z,22.90
2023-04-15T06:18:48.102Z,29.10
2023-04-15T06:23:51.027Z,27.48
2023-04-15T06:28:54.038Z,27.90
2023-04-15T06:33:58.281Z,27.35
2023-04-15T06:39:01.498Z,31.75
2023-04-15T06:44:04.869Z,39.53
2023-04-15T06:49:09.140Z,48.55
2023-04-15T06:54:12.071Z,53.45
2023-04-15T06:59:15.351Z,47.60
2023-04-15T07:04:20.399Z,43.58
2023-04-15T07:09:23.620Z,44.20
2023-04-15T07:14:26.647Z,43.67
2023-04-15T07:19:31.125Z,44.65
2023-04-15T07:24:34.111Z,50.00
2023-04-15T07:29:37.060Z,54.50
2023-04-15T07:34:41.623Z,57.40
2023-04-15T07:39:44.561Z,54.20
2023-04-15T07:44:47.508Z,55.40
2023-04-15T07:49:52.429Z,48.38
2023-04-15T07:54:55.745Z,45.78
2023-04-15T07:59:58.660Z,41.42
2023-04-15T08:05:03.285Z,43.28
2023-04-15T08:10:07.459Z,42.30
2023-04-15T08:15:11.206Z,38.03
2023-04-15T08:20:18.175Z,29.77
2023-04-15T08:25:21.302Z,39.35
2023-04-15T08:30:24.575Z,37.80
2023-04-15T08:35:28.911Z,34.15
2023-04-15T08:40:41.819Z,31.58
2023-04-15T08:45:46.788Z,29.95
2023-04-15T08:50:52.201Z,31.52
2023-04-15T08:55:58.570Z,30.85
2023-04-15T09:01:02.190Z,29.45
2023-04-15T09:06:07.535Z,27.00
2023-04-15T09:11:10.599Z,27.98
2023-04-15T09:16:15.786Z,26.20
2023-04-15T09:21:20.420Z,21.95
2023-04-15T09:26:32.147Z,21.10
2023-04-15T09:31:35.042Z,22.50
2023-04-15T09:36:58.308Z,23.55
2023-04-15T09:42:09.092Z,22.58
2023-04-15T09:47:28.482Z,22.55
2023-04-15T09:52:32.865Z,18.65
2023-04-15T09:57:37.298Z,20.63
2023-04-15T10:02:41.905Z,19.52
2023-04-15T10:07:48.290Z,19.88
2023-04-15T10:12:53.323Z,19.25
2023-04-15T10:17:57.527Z,18.65
2023-04-15T10:23:02.956Z,16.88
2023-04-15T10:28:07.618Z,17.38
2023-04-15T10:33:11.317Z,15.60
2023-04-15T10:38:35.061Z,17.73
2023-04-15T10:43:38.584Z,15.38
2023-04-15T10:48:48.800Z,14.50
2023-04-15T10:53:57.728Z,16.05
2023-04-15T10:59:02.086Z,15.35
2023-04-15T11:04:05.245Z,16.10
2023-04-15T11:09:09.723Z,17.58
2023-04-15T11:14:16.644Z,16.63
2023-04-15T11:19:19.665Z,16.25
2023-04-15T11:24:27.438Z,17.60
2023-04-15T11:29:32.171Z,13.38
2023-04-15T11:34:36.114Z,15.82
2023-04-15T11:39:40.615Z,17.15
2023-04-15T11:44:43.487Z,14.90
2023-04-15T11:49:46.382Z,14.27
2023-04-15T11:54:50.631Z,14.43
2023-04-15T11:59:56.203Z,13.05
2023-04-15T12:05:05.288Z,8.20
2023-04-15T12:10:09.677Z,10.35
2023-04-15T12:15:12.497Z,12.35
2023-04-15T12:20:16.861Z,10.45
2023-04-15T12:25:21.111Z,8.77
2023-04-15T12:30:24.105Z,9.45
2023-04-15T12:35:26.898Z,10.38
2023-04-15T12:40:31.204Z,9.45
2023-04-15T12:45:34.177Z,10.18
2023-04-15T12:50:37.243Z,9.15
2023-04-15T12:55:41.724Z,10.05
2023-04-15T13:00:44.819Z,11.48
2023-04-15T13:05:47.741Z,12.13
2023-04-15T13:10:52.008Z,10.82
2023-04-15T13:15:54.992Z,11.35
2023-04-15T13:20:57.948Z,13.10
2023-04-15T13:26:02.241Z,13.73
2023-04-15T13:31:06.050Z,16.08
2023-04-15T13:36:09.578Z,14.00
2023-04-15T13:41:13.796Z,14.40
2023-04-15T13:46:16.822Z,15.85
2023-04-15T13:51:19.712Z,15.43
2023-04-15T13:56:23.925Z,16.92
2023-04-15T14:01:27.217Z,15.90
2023-04-15T14:06:31.618Z,15.88
2023-04-15T14:11:36.755Z,19.13
2023-04-15T14:16:40.150Z,18.02
2023-04-15T14:21:43.047Z,20.73
2023-04-15T14:26:47.241Z,22.85
2023-04-15T14:32:04.268Z,22.30
2023-04-15T14:42:16.963Z,23.67
2023-04-15T14:47:19.942Z,22.50
2023-04-15T14:52:22.840Z,25.85
2023-04-15T14:57:27.026Z,27.52
2023-04-15T15:07:36.106Z,27.90
2023-04-15T15:12:40.306Z,26.17
2023-04-15T15:17:43.288Z,27.58
2023-04-15T15:22:46.272Z,27.90
2023-04-15T15:27:50.814Z,30.77
2023-04-15T15:32:53.857Z,26.38
2023-04-15T15:37:56.715Z,28.80
2023-04-15T15:43:00.935Z,24.38
2023-04-15T15:48:03.950Z,26.45
2023-04-15T15:53:06.831Z,24.60
2023-04-15T15:58:11.010Z,27.92
2023-04-15T16:03:14.182Z,31.05
2023-04-15T16:08:17.114Z,32.60
2023-04-15T16:13:21.354Z,36.67
2023-04-15T16:18:24.161Z,31.13
2023-04-15T16:23:27.096Z,34.63
2023-04-15T16:28:31.324Z,34.00
2023-04-15T16:33:34.172Z,28.77
2023-04-15T16:38:36.962Z,35.10
2023-04-15T16:43:41.206Z,43.95
2023-04-15T16:48:44.026Z,44.42
2023-04-15T16:53:46.927Z,49.40
2023-04-15T16:58:51.072Z,55.13
2023-04-15T17:03:56.058Z,55.13
2023-04-15T17:08:59.054Z,55.65
2023-04-15T17:14:03.578Z,60.85
2023-04-15T17:19:06.589Z,50.45
2023-04-15T17:24:09.427Z,57.95
2023-04-15T17:29:13.646Z,54.83
2023-04-15T17:34:16.510Z,61.60
2023-04-15T17:39:19.417Z,68.97
2023-04-15T17:44:25.208Z,73.70
2023-04-15T17:49:28.456Z,64.53
2023-04-15T17:54:31.264Z,66.93
2023-04-15T17:59:35.456Z,77.13
2023-04-15T18:04:40.521Z,76.65
2023-04-15T18:09:44.295Z,83.32
2023-04-15T18:14:48.495Z,79.68
2023-04-15T18:19:51.601Z,75.72
2023-04-15T18:24:54.593Z,84.72
2023-04-15T18:29:58.857Z,90.47
2023-04-15T18:35:02.008Z,82.30
2023-04-15T18:40:05.731Z,82.22
2023-04-15T18:45:10.874Z,84.70
2023-04-15T18:50:13.698Z,86.13
2023-04-15T18:55:19.083Z,89.63
2023-04-15T19:00:23.499Z,87.15
2023-04-15T19:05:27.071Z,89.78
2023-04-15T19:10:29.947Z,85.13
2023-04-15T19:15:34.149Z,82.75
2023-04-15T19:20:39.197Z,90.28
2023-04-15T19:25:42.839Z,103.05
2023-04-15T19:30:47.199Z,97.55
2023-04-15T19:35:50.366Z,84.20
2023-04-15T19:40:53.250Z,106.50
2023-04-15T19:45:57.511Z,107.15
2023-04-15T19:51:00.608Z,100.72
2023-04-15T19:56:03.550Z,100.03
2023-04-15T20:01:07.949Z,105.82
2023-04-15T20:06:10.914Z,101.38
2023-04-15T20:11:15.189Z,109.70
2023-04-15T20:16:19.536Z,122.15
2023-04-15T20:21:22.834Z,126.85
2023-04-15T20:26:25.865Z,118.25
2023-04-15T20:31:31.213Z,115.60
2023-04-15T20:36:34.322Z,126.43
2023-04-15T20:41:37.158Z,128.52
2023-04-15T20:46:41.543Z,120.72
2023-04-15T20:51:44.453Z,103.72
2023-04-15T20:56:47.283Z,110.80
2023-04-15T21:01:52.298Z,111.18
2023-04-15T21:06:55.489Z,109.40
2023-04-15T21:12:01.750Z,114.13
2023-04-15T21:22:43.490Z,101.20
2023-04-15T21:27:46.167Z,109.07
2023-04-15T21:32:49.059Z,96.65
2023-04-15T21:37:53.284Z,104.10
2023-04-15T21:42:56.157Z,112.22
2023-04-15T21:48:07.260Z,100.75
2023-04-15T21:53:13.027Z,95.32
2023-04-15T21:58:15.952Z,100.00
2023-04-15T22:03:19.310Z,104.57
2023-04-15T22:08:23.772Z,102.60
2023-04-15T22:13:26.885Z,95.78
2023-04-15T22:18:29.823Z,99.90
2023-04-15T22:23:34.004Z,92.20
2023-04-15T22:28:36.910Z,97.05
2023-04-15T22:33:39.879Z,100.43
2023-04-15T22:38:44.091Z,95.00
2023-04-15T22:43:47.232Z,96.47
2023-04-15T22:48:50.159Z,87.63
2023-04-15T22:53:54.703Z,90.78
2023-04-15T22:58:57.536Z,94.15
2023-04-15T23:04:05.992Z,94.22
2023-04-15T23:09:24.769Z,93.43
2023-04-15T23:14:28.070Z,100.35
2023-04-15T23:19:30.923Z,85.25
2023-04-15T23:24:35.169Z,90.60
2023-04-15T23:29:37.998Z,90.78
2023-04-15T23:34:40.918Z,84.32
2023-04-15T23:39:45.170Z,88.03
2023-04-15T23:44:48.027Z,80.45
2023-04-15T23:49:50.860Z,78.38
2023-04-15T23:54:55.104Z,79.55
2023-04-15T23:59:57.925Z,83.60
